sensor_id;sensor_type;location;lat;lon;timestamp;pressure;altitude;pressure_sealevel;temperature;humidity
49397;BME280;35615;41.410;2.194;2023-09-19T00:02:03;101584.97;;;30.03;34.38
49397;BME280;35615;41.410;2.194;2023-09-19T00:04:33;101580.63;;;30.00;34.14
49397;BME280;35615;41.410;2.194;2023-09-19T00:07:01;101573.44;;;30.02;34.36
49397;BME280;35615;41.410;2.194;2023-09-19T00:09:31;101570.16;;;29.93;34.54
49397;BME280;35615;41.410;2.194;2023-09-19T00:12:05;101570.09;;;29.96;34.70
49397;BME280;35615;41.410;2.194;2023-09-19T00:14:33;101570.97;;;29.96;35.13
49397;BME280;35615;41.410;2.194;2023-09-19T00:17:04;101580.81;;;29.94;35.01
49397;BME280;35615;41.410;2.194;2023-09-19T00:19:35;101578.25;;;29.90;35.00
49397;BME280;35615;41.410;2.194;2023-09-19T00:22:04;101579.19;;;29.89;35.13
49397;BME280;35615;41.410;2.194;2023-09-19T00:24:31;101585.59;;;29.82;35.20
49397;BME280;35615;41.410;2.194;2023-09-19T00:26:58;101576.81;;;29.78;34.81
49397;BME280;35615;41.410;2.194;2023-09-19T00:29:26;101574.22;;;29.76;35.15
49397;BME280;35615;41.410;2.194;2023-09-19T00:31:56;101574.47;;;29.67;35.29
49397;BME280;35615;41.410;2.194;2023-09-19T00:34:24;101569.94;;;29.71;35.41
49397;BME280;35615;41.410;2.194;2023-09-19T00:36:51;101568.22;;;29.68;35.53
49397;BME280;35615;41.410;2.194;2023-09-19T00:39:20;101568.31;;;29.65;35.07
49397;BME280;35615;41.410;2.194;2023-09-19T00:41:47;101578.09;;;29.65;35.58
49397;BME280;35615;41.410;2.194;2023-09-19T00:44:15;101579.78;;;29.67;35.63
49397;BME280;35615;41.410;2.194;2023-09-19T00:46:43;101572.88;;;29.62;35.48
49397;BME280;35615;41.410;2.194;2023-09-19T00:49:10;101576.44;;;29.61;36.02
49397;BME280;35615;41.410;2.194;2023-09-19T00:51:39;101572.97;;;29.57;36.05
49397;BME280;35615;41.410;2.194;2023-09-19T00:54:09;101582.84;;;29.54;36.05
49397;BME280;35615;41.410;2.194;2023-09-19T00:56:36;101590.97;;;29.47;36.08
49397;BME280;35615;41.410;2.194;2023-09-19T00:59:07;101588.44;;;29.43;36.12
49397;BME280;35615;41.410;2.194;2023-09-19T01:01:35;101591.88;;;29.46;35.93
49397;BME280;35615;41.410;2.194;2023-09-19T01:04:03;101594.63;;;29.43;36.03
49397;BME280;35615;41.410;2.194;2023-09-19T01:06:31;101591.13;;;29.41;36.34
49397;BME280;35615;41.410;2.194;2023-09-19T01:08:59;101589.44;;;29.39;36.36
49397;BME280;35615;41.410;2.194;2023-09-19T01:11:36;101596.59;;;29.35;36.44
49397;BME280;35615;41.410;2.194;2023-09-19T01:14:26;101591.50;;;29.28;36.64
49397;BME280;35615;41.410;2.194;2023-09-19T01:17:08;101588.16;;;29.19;36.34
49397;BME280;35615;41.410;2.194;2023-09-19T01:20:08;101593.41;;;29.22;36.91
49397;BME280;35615;41.410;2.194;2023-09-19T01:22:53;101586.41;;;29.18;36.82
49397;BME280;35615;41.410;2.194;2023-09-19T01:31:28;101581.13;;;29.17;36.90
49397;BME280;35615;41.410;2.194;2023-09-19T01:34:02;101582.00;;;29.17;36.99
49397;BME280;35615;41.410;2.194;2023-09-19T01:36:35;101586.50;;;29.14;37.13
49397;BME280;35615;41.410;2.194;2023-09-19T01:39:13;101590.91;;;29.15;37.51
49397;BME280;35615;41.410;2.194;2023-09-19T01:42:04;101585.78;;;29.09;37.88
49397;BME280;35615;41.410;2.194;2023-09-19T01:44:44;101585.66;;;29.13;37.41
49397;BME280;35615;41.410;2.194;2023-09-19T01:47:33;101595.78;;;28.99;37.96
49397;BME280;35615;41.410;2.194;2023-09-19T01:53:02;101601.97;;;29.00;38.35
49397;BME280;35615;41.410;2.194;2023-09-19T01:55:33;101596.69;;;28.98;38.55
49397;BME280;35615;41.410;2.194;2023-09-19T01:58:08;101601.19;;;28.96;38.23
49397;BME280;35615;41.410;2.194;2023-09-19T02:00:41;101606.53;;;28.93;38.25
49397;BME280;35615;41.410;2.194;2023-09-19T02:03:11;101609.16;;;28.96;38.51
49397;BME280;35615;41.410;2.194;2023-09-19T02:05:39;101616.25;;;28.96;38.36
49397;BME280;35615;41.410;2.194;2023-09-19T02:08:06;101615.44;;;28.93;38.52
49397;BME280;35615;41.410;2.194;2023-09-19T02:10:33;101613.53;;;28.99;38.32
49397;BME280;35615;41.410;2.194;2023-09-19T02:13:01;101618.06;;;28.95;38.75
49397;BME280;35615;41.410;2.194;2023-09-19T02:15:31;101616.22;;;28.97;38.66
49397;BME280;35615;41.410;2.194;2023-09-19T02:18:04;101613.66;;;28.94;38.87
49397;BME280;35615;41.410;2.194;2023-09-19T02:20:32;101611.06;;;28.89;39.07
49397;BME280;35615;41.410;2.194;2023-09-19T02:23:00;101616.34;;;28.91;38.89
49397;BME280;35615;41.410;2.194;2023-09-19T02:25:27;101611.13;;;28.88;39.45
49397;BME280;35615;41.410;2.194;2023-09-19T02:27:55;101616.41;;;28.89;39.48
49397;BME280;35615;41.410;2.194;2023-09-19T02:30:25;101611.91;;;28.91;39.26
49397;BME280;35615;41.410;2.194;2023-09-19T02:32:54;101619.97;;;28.88;39.57
49397;BME280;35615;41.410;2.194;2023-09-19T02:35:21;101622.69;;;28.85;39.60
49397;BME280;35615;41.410;2.194;2023-09-19T02:37:49;101626.22;;;28.86;39.85
49397;BME280;35615;41.410;2.194;2023-09-19T02:40:16;101621.81;;;28.85;39.99
49397;BME280;35615;41.410;2.194;2023-09-19T02:42:48;101615.56;;;28.86;40.31
49397;BME280;35615;41.410;2.194;2023-09-19T02:45:17;101614.38;;;28.62;41.07
49397;BME280;35615;41.410;2.194;2023-09-19T02:47:45;101607.06;;;28.72;41.20
49397;BME280;35615;41.410;2.194;2023-09-19T02:50:15;101604.31;;;28.75;41.88
49397;BME280;35615;41.410;2.194;2023-09-19T02:52:43;101606.06;;;28.76;41.90
49397;BME280;35615;41.410;2.194;2023-09-19T02:55:12;101613.34;;;28.68;43.07
49397;BME280;35615;41.410;2.194;2023-09-19T03:00:16;101606.75;;;28.84;42.32
49397;BME280;35615;41.410;2.194;2023-09-19T03:02:43;101606.81;;;28.81;42.78
49397;BME280;35615;41.410;2.194;2023-09-19T03:05:12;101604.56;;;28.64;44.81
49397;BME280;35615;41.410;2.194;2023-09-19T03:07:39;101610.09;;;28.55;46.05
49397;BME280;35615;41.410;2.194;2023-09-19T03:10:07;101612.63;;;28.59;45.99
49397;BME280;35615;41.410;2.194;2023-09-19T03:12:35;101599.88;;;28.75;45.50
49397;BME280;35615;41.410;2.194;2023-09-19T03:15:03;101603.63;;;28.67;46.37
49397;BME280;35615;41.410;2.194;2023-09-19T03:17:31;101602.78;;;28.64;46.71
49397;BME280;35615;41.410;2.194;2023-09-19T03:20:00;101595.81;;;28.59;46.68
49397;BME280;35615;41.410;2.194;2023-09-19T03:22:27;101600.75;;;28.76;46.44
49397;BME280;35615;41.410;2.194;2023-09-19T03:24:54;101592.81;;;28.74;46.50
49397;BME280;35615;41.410;2.194;2023-09-19T03:27:22;101603.91;;;28.54;47.65
49397;BME280;35615;41.410;2.194;2023-09-19T03:29:51;101598.09;;;28.76;46.61
49397;BME280;35615;41.410;2.194;2023-09-19T03:32:18;101603.97;;;28.51;47.85
49397;BME280;35615;41.410;2.194;2023-09-19T03:34:46;101598.88;;;28.42;48.25
49397;BME280;35615;41.410;2.194;2023-09-19T03:37:16;101602.00;;;28.59;47.91
49397;BME280;35615;41.410;2.194;2023-09-19T03:39:44;101600.00;;;28.30;48.62
49397;BME280;35615;41.410;2.194;2023-09-19T03:42:12;101601.69;;;28.34;49.16
49397;BME280;35615;41.410;2.194;2023-09-19T03:44:39;101600.56;;;28.45;48.25
49397;BME280;35615;41.410;2.194;2023-09-19T03:47:07;101600.41;;;28.52;48.46
49397;BME280;35615;41.410;2.194;2023-09-19T03:49:34;101606.41;;;28.62;48.24
49397;BME280;35615;41.410;2.194;2023-09-19T03:52:05;101606.13;;;28.34;49.45
49397;BME280;35615;41.410;2.194;2023-09-19T03:54:33;101610.44;;;28.40;49.29
49397;BME280;35615;41.410;2.194;2023-09-19T03:57:00;101605.16;;;28.38;49.41
49397;BME280;35615;41.410;2.194;2023-09-19T03:59:27;101611.41;;;28.35;49.77
49397;BME280;35615;41.410;2.194;2023-09-19T04:01:56;101611.59;;;28.25;50.09
49397;BME280;35615;41.410;2.194;2023-09-19T04:04:25;101607.69;;;28.44;49.68
49397;BME280;35615;41.410;2.194;2023-09-19T04:06:52;101603.34;;;27.97;51.08
49397;BME280;35615;41.410;2.194;2023-09-19T04:09:20;101597.41;;;28.26;50.24
49397;BME280;35615;41.410;2.194;2023-09-19T04:11:48;101596.72;;;28.18;50.58
49397;BME280;35615;41.410;2.194;2023-09-19T04:14:18;101600.59;;;28.01;51.11
49397;BME280;35615;41.410;2.194;2023-09-19T04:16:48;101596.56;;;28.24;49.95
49397;BME280;35615;41.410;2.194;2023-09-19T04:19:16;101596.34;;;28.36;49.48
49397;BME280;35615;41.410;2.194;2023-09-19T04:21:44;101602.31;;;28.46;49.67
49397;BME280;35615;41.410;2.194;2023-09-19T04:24:11;101604.25;;;28.38;50.19
49397;BME280;35615;41.410;2.194;2023-09-19T04:26:40;101605.88;;;28.45;49.92
49397;BME280;35615;41.410;2.194;2023-09-19T04:29:09;101609.81;;;28.25;50.59
49397;BME280;35615;41.410;2.194;2023-09-19T04:31:37;101612.06;;;28.45;49.54
49397;BME280;35615;41.410;2.194;2023-09-19T04:34:07;101613.97;;;28.40;49.67
49397;BME280;35615;41.410;2.194;2023-09-19T04:36:37;101609.56;;;28.39;50.07
49397;BME280;35615;41.410;2.194;2023-09-19T04:39:04;101610.34;;;28.44;48.83
49397;BME280;35615;41.410;2.194;2023-09-19T04:41:34;101616.53;;;28.45;47.71
49397;BME280;35615;41.410;2.194;2023-09-19T04:44:05;101619.22;;;28.43;47.39
49397;BME280;35615;41.410;2.194;2023-09-19T04:46:32;101615.72;;;28.41;46.49
49397;BME280;35615;41.410;2.194;2023-09-19T04:49:00;101613.25;;;28.32;46.46
49397;BME280;35615;41.410;2.194;2023-09-19T04:51:27;101621.34;;;28.27;45.88
49397;BME280;35615;41.410;2.194;2023-09-19T04:54:00;101615.25;;;28.21;46.03
49397;BME280;35615;41.410;2.194;2023-09-19T04:56:27;101626.91;;;28.14;45.55
49397;BME280;35615;41.410;2.194;2023-09-19T04:58:55;101623.31;;;28.16;45.43
49397;BME280;35615;41.410;2.194;2023-09-19T05:01:24;101635.78;;;28.13;45.28
49397;BME280;35615;41.410;2.194;2023-09-19T05:03:52;101632.28;;;28.11;45.19
49397;BME280;35615;41.410;2.194;2023-09-19T05:06:22;101636.81;;;28.05;45.22
49397;BME280;35615;41.410;2.194;2023-09-19T05:08:50;101639.59;;;27.99;45.28
49397;BME280;35615;41.410;2.194;2023-09-19T05:11:21;101636.94;;;27.99;45.04
49397;BME280;35615;41.410;2.194;2023-09-19T05:13:49;101644.88;;;28.01;45.40
49397;BME280;35615;41.410;2.194;2023-09-19T05:16:20;101643.34;;;27.89;44.88
49397;BME280;35615;41.410;2.194;2023-09-19T05:18:47;101643.56;;;27.77;45.37
49397;BME280;35615;41.410;2.194;2023-09-19T05:21:16;101643.47;;;27.82;45.25
49397;BME280;35615;41.410;2.194;2023-09-19T05:23:44;101647.22;;;27.70;45.33
49397;BME280;35615;41.410;2.194;2023-09-19T05:26:11;101646.22;;;27.77;45.18
49397;BME280;35615;41.410;2.194;2023-09-19T05:28:39;101651.63;;;27.72;45.18
49397;BME280;35615;41.410;2.194;2023-09-19T05:31:06;101649.94;;;27.67;45.14
49397;BME280;35615;41.410;2.194;2023-09-19T05:33:34;101645.47;;;27.69;44.98
49397;BME280;35615;41.410;2.194;2023-09-19T05:36:01;101649.81;;;27.74;45.02
49397;BME280;35615;41.410;2.194;2023-09-19T05:38:28;101656.00;;;27.75;44.76
49397;BME280;35615;41.410;2.194;2023-09-19T05:40:55;101653.50;;;27.64;44.90
49397;BME280;35615;41.410;2.194;2023-09-19T05:43:23;101655.34;;;27.59;45.29
49397;BME280;35615;41.410;2.194;2023-09-19T05:45:51;101661.66;;;27.54;45.20
49397;BME280;35615;41.410;2.194;2023-09-19T05:48:19;101658.00;;;27.61;44.90
49397;BME280;35615;41.410;2.194;2023-09-19T05:50:48;101658.97;;;27.55;44.74
49397;BME280;35615;41.410;2.194;2023-09-19T05:53:18;101662.66;;;27.46;45.07
49397;BME280;35615;41.410;2.194;2023-09-19T05:55:45;101660.94;;;27.44;44.98
49397;BME280;35615;41.410;2.194;2023-09-19T05:58:14;101673.28;;;27.46;45.13
49397;BME280;35615;41.410;2.194;2023-09-19T06:00:46;101674.13;;;27.48;45.34
49397;BME280;35615;41.410;2.194;2023-09-19T06:03:15;101677.94;;;27.34;45.12
49397;BME280;35615;41.410;2.194;2023-09-19T06:05:44;101676.28;;;27.28;44.64
49397;BME280;35615;41.410;2.194;2023-09-19T06:08:13;101668.88;;;27.45;44.85
49397;BME280;35615;41.410;2.194;2023-09-19T06:10:40;101664.31;;;27.54;44.54
49397;BME280;35615;41.410;2.194;2023-09-19T06:13:07;101670.47;;;27.56;44.37
49397;BME280;35615;41.410;2.194;2023-09-19T06:15:37;101661.69;;;27.52;44.41
49397;BME280;35615;41.410;2.194;2023-09-19T06:18:04;101667.91;;;27.51;44.21
49397;BME280;35615;41.410;2.194;2023-09-19T06:20:32;101669.69;;;27.49;44.25
49397;BME280;35615;41.410;2.194;2023-09-19T06:23:00;101671.53;;;27.45;44.42
49397;BME280;35615;41.410;2.194;2023-09-19T06:25:29;101663.38;;;27.56;44.07
49397;BME280;35615;41.410;2.194;2023-09-19T06:27:57;101667.72;;;27.60;43.90
49397;BME280;35615;41.410;2.194;2023-09-19T06:30:25;101662.44;;;27.59;43.96
49397;BME280;35615;41.410;2.194;2023-09-19T06:32:57;101669.69;;;27.49;43.67
49397;BME280;35615;41.410;2.194;2023-09-19T06:35:25;101670.59;;;27.48;43.79
49397;BME280;35615;41.410;2.194;2023-09-19T06:37:53;101673.00;;;27.65;43.58
49397;BME280;35615;41.410;2.194;2023-09-19T06:40:21;101671.28;;;27.61;43.58
49397;BME280;35615;41.410;2.194;2023-09-19T06:42:51;101665.81;;;27.70;43.42
49397;BME280;35615;41.410;2.194;2023-09-19T06:45:20;101667.53;;;27.74;43.40
49397;BME280;35615;41.410;2.194;2023-09-19T06:47:51;101665.97;;;27.59;43.52
49397;BME280;35615;41.410;2.194;2023-09-19T06:50:20;101674.94;;;27.54;43.52
49397;BME280;35615;41.410;2.194;2023-09-19T06:52:54;101674.81;;;27.61;43.80
49397;BME280;35615;41.410;2.194;2023-09-19T06:55:26;101671.13;;;27.70;43.41
49397;BME280;35615;41.410;2.194;2023-09-19T06:58:00;101666.78;;;27.64;43.21
49397;BME280;35615;41.410;2.194;2023-09-19T07:00:27;101671.25;;;27.62;43.36
49397;BME280;35615;41.410;2.194;2023-09-19T07:03:03;101679.44;;;27.48;43.85
49397;BME280;35615;41.410;2.194;2023-09-19T07:05:32;101676.75;;;27.52;43.90
49397;BME280;35615;41.410;2.194;2023-09-19T07:08:00;101672.88;;;27.72;43.62
49397;BME280;35615;41.410;2.194;2023-09-19T07:10:32;101673.91;;;27.62;43.06
49397;BME280;35615;41.410;2.194;2023-09-19T07:13:07;101678.25;;;27.68;43.82
49397;BME280;35615;41.410;2.194;2023-09-19T07:15:38;101671.25;;;27.62;43.62
49397;BME280;35615;41.410;2.194;2023-09-19T07:18:07;101672.16;;;27.61;43.41
49397;BME280;35615;41.410;2.194;2023-09-19T07:20:38;101676.53;;;27.64;43.34
49397;BME280;35615;41.410;2.194;2023-09-19T07:23:05;101678.19;;;27.72;43.39
49397;BME280;35615;41.410;2.194;2023-09-19T07:25:35;101679.78;;;27.81;43.02
49397;BME280;35615;41.410;2.194;2023-09-19T07:28:03;101688.63;;;27.82;43.42
49397;BME280;35615;41.410;2.194;2023-09-19T07:30:31;101688.41;;;27.94;42.94
49397;BME280;35615;41.410;2.194;2023-09-19T07:32:58;101691.97;;;27.91;43.26
49397;BME280;35615;41.410;2.194;2023-09-19T07:35:25;101698.38;;;27.83;43.14
49397;BME280;35615;41.410;2.194;2023-09-19T07:37:52;101691.91;;;27.96;43.44
49397;BME280;35615;41.410;2.194;2023-09-19T07:40:20;101693.78;;;27.89;42.98
49397;BME280;35615;41.410;2.194;2023-09-19T07:42:48;101699.81;;;27.99;43.00
49397;BME280;35615;41.410;2.194;2023-09-19T07:45:16;101695.25;;;28.07;43.26
49397;BME280;35615;41.410;2.194;2023-09-19T07:47:48;101708.78;;;27.92;43.22
49397;BME280;35615;41.410;2.194;2023-09-19T07:50:17;101713.00;;;28.03;43.01
49397;BME280;35615;41.410;2.194;2023-09-19T07:52:48;101715.44;;;28.16;43.26
49397;BME280;35615;41.410;2.194;2023-09-19T07:55:18;101711.56;;;28.33;42.70
49397;BME280;35615;41.410;2.194;2023-09-19T07:57:47;101713.41;;;28.30;42.83
49397;BME280;35615;41.410;2.194;2023-09-19T08:00:14;101715.97;;;28.34;42.81
49397;BME280;35615;41.410;2.194;2023-09-19T08:02:42;101714.97;;;28.40;42.65
49397;BME280;35615;41.410;2.194;2023-09-19T08:05:11;101728.13;;;28.46;42.28
49397;BME280;35615;41.410;2.194;2023-09-19T08:07:40;101720.09;;;28.51;42.50
49397;BME280;35615;41.410;2.194;2023-09-19T08:10:08;101727.84;;;28.61;42.68
49397;BME280;35615;41.410;2.194;2023-09-19T08:12:40;101738.09;;;28.78;42.03
49397;BME280;35615;41.410;2.194;2023-09-19T08:15:20;101738.00;;;28.81;42.26
49397;BME280;35615;41.410;2.194;2023-09-19T08:17:48;101744.13;;;28.88;42.59
49397;BME280;35615;41.410;2.194;2023-09-19T08:20:16;101738.53;;;29.00;42.00
49397;BME280;35615;41.410;2.194;2023-09-19T08:22:48;101744.13;;;28.86;42.56
49397;BME280;35615;41.410;2.194;2023-09-19T08:25:16;101747.00;;;29.17;42.30
49397;BME280;35615;41.410;2.194;2023-09-19T08:27:45;101750.38;;;29.24;41.72
49397;BME280;35615;41.410;2.194;2023-09-19T08:30:19;101751.16;;;29.29;41.95
49397;BME280;35615;41.410;2.194;2023-09-19T08:32:57;101749.28;;;29.33;41.98
49397;BME280;35615;41.410;2.194;2023-09-19T08:35:26;101753.25;;;29.54;41.94
49397;BME280;35615;41.410;2.194;2023-09-19T08:37:54;101764.94;;;29.48;41.69
49397;BME280;35615;41.410;2.194;2023-09-19T08:40:23;101761.13;;;29.58;42.55
49397;BME280;35615;41.410;2.194;2023-09-19T08:42:52;101760.06;;;29.65;42.62
49397;BME280;35615;41.410;2.194;2023-09-19T08:45:21;101761.78;;;29.68;42.68
49397;BME280;35615;41.410;2.194;2023-09-19T08:50:27;101772.34;;;29.72;43.90
49397;BME280;35615;41.410;2.194;2023-09-19T08:52:55;101776.31;;;30.24;43.30
49397;BME280;35615;41.410;2.194;2023-09-19T08:55:27;101771.47;;;30.39;42.97
49397;BME280;35615;41.410;2.194;2023-09-19T08:58:03;101769.91;;;30.31;43.22
49397;BME280;35615;41.410;2.194;2023-09-19T09:00:34;101773.28;;;30.38;43.42
49397;BME280;35615;41.410;2.194;2023-09-19T09:03:03;101779.75;;;30.60;42.93
49397;BME280;35615;41.410;2.194;2023-09-19T09:05:35;101771.47;;;30.70;43.29
49397;BME280;35615;41.410;2.194;2023-09-19T09:08:05;101776.69;;;30.74;43.05
49397;BME280;35615;41.410;2.194;2023-09-19T09:10:33;101780.03;;;31.10;42.22
49397;BME280;35615;41.410;2.194;2023-09-19T09:13:01;101779.00;;;31.16;42.63
49397;BME280;35615;41.410;2.194;2023-09-19T09:15:30;101783.91;;;31.58;41.77
49397;BME280;35615;41.410;2.194;2023-09-19T09:18:02;101783.88;;;31.31;41.61
49397;BME280;35615;41.410;2.194;2023-09-19T09:20:32;101776.41;;;31.13;41.85
49397;BME280;35615;41.410;2.194;2023-09-19T09:22:59;101771.97;;;31.12;42.26
49397;BME280;35615;41.410;2.194;2023-09-19T09:25:53;101770.03;;;30.89;43.05
49397;BME280;35615;41.410;2.194;2023-09-19T09:28:25;101770.63;;;30.99;42.82
49397;BME280;35615;41.410;2.194;2023-09-19T09:30:58;101770.88;;;31.19;42.38
49397;BME280;35615;41.410;2.194;2023-09-19T09:33:25;101760.53;;;31.38;42.14
49397;BME280;35615;41.410;2.194;2023-09-19T09:35:57;101753.88;;;31.23;41.80
49397;BME280;35615;41.410;2.194;2023-09-19T09:38:44;101755.81;;;31.72;41.35
49397;BME280;35615;41.410;2.194;2023-09-19T09:41:16;101755.50;;;32.33;40.56
49397;BME280;35615;41.410;2.194;2023-09-19T09:43:54;101747.19;;;32.64;39.99
49397;BME280;35615;41.410;2.194;2023-09-19T09:46:21;101750.28;;;32.28;40.23
49397;BME280;35615;41.410;2.194;2023-09-19T09:49:03;101757.91;;;32.41;40.23
49397;BME280;35615;41.410;2.194;2023-09-19T09:51:43;101751.56;;;32.18;40.42
49397;BME280;35615;41.410;2.194;2023-09-19T09:54:16;101752.25;;;32.23;40.62
49397;BME280;35615;41.410;2.194;2023-09-19T09:56:57;101736.91;;;32.03;40.52
49397;BME280;35615;41.410;2.194;2023-09-19T09:59:50;101755.44;;;32.58;39.83
49397;BME280;35615;41.410;2.194;2023-09-19T10:02:28;101762.22;;;32.91;39.70
49397;BME280;35615;41.410;2.194;2023-09-19T10:04:58;101771.34;;;33.09;38.45
49397;BME280;35615;41.410;2.194;2023-09-19T10:07:36;101769.59;;;33.08;39.32
49397;BME280;35615;41.410;2.194;2023-09-19T10:10:09;101783.50;;;33.18;38.88
49397;BME280;35615;41.410;2.194;2023-09-19T10:12:48;101784.66;;;32.64;39.39
49397;BME280;35615;41.410;2.194;2023-09-19T10:15:18;101765.25;;;32.81;39.24
49397;BME280;35615;41.410;2.194;2023-09-19T10:17:52;101754.81;;;32.51;39.97
49397;BME280;35615;41.410;2.194;2023-09-19T10:20:23;101760.50;;;32.17;40.36
49397;BME280;35615;41.410;2.194;2023-09-19T10:22:53;101751.00;;;32.33;40.63
49397;BME280;35615;41.410;2.194;2023-09-19T10:25:27;101766.63;;;31.68;41.73
49397;BME280;35615;41.410;2.194;2023-09-19T10:28:00;101765.56;;;30.89;43.57
49397;BME280;35615;41.410;2.194;2023-09-19T10:30:31;101761.19;;;30.87;42.74
49397;BME280;35615;41.410;2.194;2023-09-19T10:33:01;101757.22;;;31.30;42.73
49397;BME280;35615;41.410;2.194;2023-09-19T10:35:29;101760.97;;;30.94;43.01
49397;BME280;35615;41.410;2.194;2023-09-19T10:37:59;101753.19;;;30.87;43.47
49397;BME280;35615;41.410;2.194;2023-09-19T10:40:28;101744.63;;;31.61;42.12
49397;BME280;35615;41.410;2.194;2023-09-19T10:43:03;101743.75;;;31.61;42.00
49397;BME280;35615;41.410;2.194;2023-09-19T10:45:33;101741.25;;;32.07;41.66
49397;BME280;35615;41.410;2.194;2023-09-19T10:48:02;101740.72;;;32.46;40.28
49397;BME280;35615;41.410;2.194;2023-09-19T10:50:47;101745.44;;;32.40;40.44
49397;BME280;35615;41.410;2.194;2023-09-19T10:53:17;101743.34;;;32.48;40.14
49397;BME280;35615;41.410;2.194;2023-09-19T10:55:56;101750.88;;;32.61;39.83
49397;BME280;35615;41.410;2.194;2023-09-19T10:58:28;101751.84;;;32.59;39.69
49397;BME280;35615;41.410;2.194;2023-09-19T11:01:05;101745.25;;;32.67;39.25
49397;BME280;35615;41.410;2.194;2023-09-19T11:03:33;101750.16;;;32.80;39.03
49397;BME280;35615;41.410;2.194;2023-09-19T11:06:13;101738.56;;;33.03;38.29
49397;BME280;35615;41.410;2.194;2023-09-19T11:09:02;101729.06;;;32.72;37.95
49397;BME280;35615;41.410;2.194;2023-09-19T11:11:58;101737.88;;;32.74;38.43
49397;BME280;35615;41.410;2.194;2023-09-19T11:30:42;101742.13;;;32.08;37.52
49397;BME280;35615;41.410;2.194;2023-09-19T11:33:30;101749.19;;;31.84;38.98
49397;BME280;35615;41.410;2.194;2023-09-19T11:36:09;101737.78;;;31.52;39.80
49397;BME280;35615;41.410;2.194;2023-09-19T11:46:33;101744.22;;;31.45;40.27
49397;BME280;35615;41.410;2.194;2023-09-19T11:49:08;101732.25;;;31.85;39.53
49397;BME280;35615;41.410;2.194;2023-09-19T11:51:42;101742.25;;;31.52;40.73
49397;BME280;35615;41.410;2.194;2023-09-19T11:54:11;101750.69;;;30.81;42.20
49397;BME280;35615;41.410;2.194;2023-09-19T11:56:50;101747.78;;;31.18;41.92
49397;BME280;35615;41.410;2.194;2023-09-19T11:59:21;101747.03;;;30.85;42.23
49397;BME280;35615;41.410;2.194;2023-09-19T12:01:56;101739.69;;;30.91;42.60
49397;BME280;35615;41.410;2.194;2023-09-19T12:04:37;101746.56;;;30.71;42.79
49397;BME280;35615;41.410;2.194;2023-09-19T12:07:10;101744.72;;;30.42;43.55
49397;BME280;35615;41.410;2.194;2023-09-19T12:09:48;101737.59;;;30.73;42.14
49397;BME280;35615;41.410;2.194;2023-09-19T12:12:26;101737.59;;;30.73;42.09
49397;BME280;35615;41.410;2.194;2023-09-19T12:14:55;101745.78;;;30.67;42.08
49397;BME280;35615;41.410;2.194;2023-09-19T12:17:36;101739.66;;;30.32;42.54
49397;BME280;35615;41.410;2.194;2023-09-19T12:20:03;101739.09;;;30.83;42.18
49397;BME280;35615;41.410;2.194;2023-09-19T12:22:46;101741.09;;;31.05;41.76
49397;BME280;35615;41.410;2.194;2023-09-19T12:25:14;101732.97;;;31.36;40.94
49397;BME280;35615;41.410;2.194;2023-09-19T12:27:48;101738.78;;;31.22;40.99
49397;BME280;35615;41.410;2.194;2023-09-19T12:30:27;101735.09;;;30.97;41.71
49397;BME280;35615;41.410;2.194;2023-09-19T12:32:55;101732.72;;;30.87;41.86
49397;BME280;35615;41.410;2.194;2023-09-19T12:35:51;101725.75;;;31.39;40.67
49397;BME280;35615;41.410;2.194;2023-09-19T12:38:27;101715.06;;;31.39;40.79
49397;BME280;35615;41.410;2.194;2023-09-19T12:41:02;101714.63;;;31.27;40.68
49397;BME280;35615;41.410;2.194;2023-09-19T12:43:33;101717.59;;;31.16;41.00
49397;BME280;35615;41.410;2.194;2023-09-19T12:46:02;101716.06;;;30.50;42.49
49397;BME280;35615;41.410;2.194;2023-09-19T12:48:29;101695.16;;;30.65;42.08
49397;BME280;35615;41.410;2.194;2023-09-19T12:51:08;101712.53;;;30.48;41.90
49397;BME280;35615;41.410;2.194;2023-09-19T12:53:56;101719.84;;;30.72;42.34
49397;BME280;35615;41.410;2.194;2023-09-19T12:56:24;101714.84;;;30.89;41.21
49397;BME280;35615;41.410;2.194;2023-09-19T12:58:57;101711.06;;;30.69;41.97
49397;BME280;35615;41.410;2.194;2023-09-19T13:01:30;101706.53;;;30.71;41.60
49397;BME280;35615;41.410;2.194;2023-09-19T13:04:21;101707.13;;;29.87;43.20
49397;BME280;35615;41.410;2.194;2023-09-19T13:06:59;101699.03;;;29.90;43.21
49397;BME280;35615;41.410;2.194;2023-09-19T13:09:28;101702.03;;;29.78;43.38
49397;BME280;35615;41.410;2.194;2023-09-19T13:12:02;101697.63;;;29.77;43.14
49397;BME280;35615;41.410;2.194;2023-09-19T13:14:30;101690.63;;;30.07;42.55
49397;BME280;35615;41.410;2.194;2023-09-19T13:17:03;101671.00;;;30.10;42.97
49397;BME280;35615;41.410;2.194;2023-09-19T13:19:49;101678.22;;;30.06;42.70
49397;BME280;35615;41.410;2.194;2023-09-19T13:25:14;101676.00;;;29.88;43.09
49397;BME280;35615;41.410;2.194;2023-09-19T13:27:50;101677.97;;;29.81;42.96
49397;BME280;35615;41.410;2.194;2023-09-19T13:30:20;101672.63;;;29.81;43.37
49397;BME280;35615;41.410;2.194;2023-09-19T13:32:50;101665.31;;;29.57;44.08
49397;BME280;35615;41.410;2.194;2023-09-19T13:35:20;101672.31;;;29.61;44.21
49397;BME280;35615;41.410;2.194;2023-09-19T13:37:47;101671.97;;;29.37;44.86
49397;BME280;35615;41.410;2.194;2023-09-19T13:40:18;101682.41;;;29.11;44.92
49397;BME280;35615;41.410;2.194;2023-09-19T13:42:45;101681.75;;;29.37;44.87
49397;BME280;35615;41.410;2.194;2023-09-19T13:45:13;101671.75;;;29.46;44.28
49397;BME280;35615;41.410;2.194;2023-09-19T13:47:44;101658.47;;;29.79;44.12
49397;BME280;35615;41.410;2.194;2023-09-19T13:50:11;101651.91;;;29.92;43.55
49397;BME280;35615;41.410;2.194;2023-09-19T13:52:39;101663.75;;;29.46;44.35